sensor_id;sensor_type;location;lat;lon;timestamp;P1;durP1;ratioP1;P2;durP2;ratioP2
19889;SDS011;10107;51.198;6.824;2023-05-07T00:03:16;5.05;;;4.10;;
19889;SDS011;10107;51.198;6.824;2023-05-07T00:07:20;5.18;;;4.05;;
19889;SDS011;10107;51.198;6.824;2023-05-07T00:11:22;2.90;;;2.53;;
19889;SDS011;10107;51.198;6.824;2023-05-07T00:15:23;5.25;;;3.92;;
19889;SDS011;10107;51.198;6.824;2023-05-07T00:19:25;4.05;;;3.42;;
19889;SDS011;10107;51.198;6.824;2023-05-07T00:23:28;4.03;;;3.50;;
19889;SDS011;10107;51.198;6.824;2023-05-07T00:27:30;3.83;;;3.43;;
19889;SDS011;10107;51.198;6.824;2023-05-07T00:31:31;4.45;;;3.58;;
19889;SDS011;10107;51.198;6.824;2023-05-07T00:35:33;4.38;;;3.50;;
19889;SDS011;10107;51.198;6.824;2023-05-07T00:39:36;4.07;;;3.10;;
19889;SDS011;10107;51.198;6.824;2023-05-07T00:43:38;3.87;;;3.57;;
19889;SDS011;10107;51.198;6.824;2023-05-07T00:47:40;4.53;;;3.67;;
19889;SDS011;10107;51.198;6.824;2023-05-07T00:51:42;5.05;;;4.05;;
19889;SDS011;10107;51.198;6.824;2023-05-07T00:55:45;4.50;;;4.03;;
19889;SDS011;10107;51.198;6.824;2023-05-07T00:59:47;4.80;;;3.80;;
19889;SDS011;10107;51.198;6.824;2023-05-07T01:03:50;4.10;;;3.20;;
19889;SDS011;10107;51.198;6.824;2023-05-07T01:07:52;5.47;;;3.75;;
19889;SDS011;10107;51.198;6.824;2023-05-07T01:11:57;4.88;;;4.10;;
19889;SDS011;10107;51.198;6.824;2023-05-07T01:16:00;3.90;;;3.40;;
19889;SDS011;10107;51.198;6.824;2023-05-07T01:20:04;5.00;;;3.85;;
19889;SDS011;10107;51.198;6.824;2023-05-07T01:24:09;5.25;;;3.90;;
19889;SDS011;10107;51.198;6.824;2023-05-07T01:28:11;4.60;;;3.67;;
19889;SDS011;10107;51.198;6.824;2023-05-07T01:32:15;4.78;;;3.83;;
19889;SDS011;10107;51.198;6.824;2023-05-07T01:36:22;5.13;;;3.90;;
19889;SDS011;10107;51.198;6.824;2023-05-07T01:40:28;4.40;;;3.80;;
19889;SDS011;10107;51.198;6.824;2023-05-07T01:44:30;4.20;;;3.60;;
19889;SDS011;10107;51.198;6.824;2023-05-07T01:48:32;4.13;;;3.47;;
19889;SDS011;10107;51.198;6.824;2023-05-07T01:52:34;4.50;;;4.00;;
19889;SDS011;10107;51.198;6.824;2023-05-07T01:56:38;4.00;;;2.70;;
19889;SDS011;10107;51.198;6.824;2023-05-07T02:00:40;4.63;;;3.90;;
19889;SDS011;10107;51.198;6.824;2023-05-07T02:04:42;3.90;;;3.38;;
19889;SDS011;10107;51.198;6.824;2023-05-07T02:08:46;3.95;;;3.55;;
19889;SDS011;10107;51.198;6.824;2023-05-07T02:12:50;3.83;;;3.42;;
19889;SDS011;10107;51.198;6.824;2023-05-07T02:16:52;4.77;;;3.60;;
19889;SDS011;10107;51.198;6.824;2023-05-07T02:20:55;4.97;;;3.90;;
19889;SDS011;10107;51.198;6.824;2023-05-07T02:24:56;4.68;;;4.20;;
19889;SDS011;10107;51.198;6.824;2023-05-07T02:28:59;6.18;;;3.85;;
19889;SDS011;10107;51.198;6.824;2023-05-07T02:33:01;5.43;;;3.75;;
19889;SDS011;10107;51.198;6.824;2023-05-07T02:37:03;4.25;;;3.67;;
19889;SDS011;10107;51.198;6.824;2023-05-07T02:41:05;4.60;;;4.00;;
19889;SDS011;10107;51.198;6.824;2023-05-07T02:45:09;4.60;;;4.10;;
19889;SDS011;10107;51.198;6.824;2023-05-07T02:49:12;3.97;;;3.50;;
19889;SDS011;10107;51.198;6.824;2023-05-07T02:53:14;3.97;;;3.58;;
19889;SDS011;10107;51.198;6.824;2023-05-07T02:57:16;4.38;;;3.97;;
19889;SDS011;10107;51.198;6.824;2023-05-07T03:01:19;4.30;;;3.90;;
19889;SDS011;10107;51.198;6.824;2023-05-07T03:05:28;3.85;;;3.40;;
19889;SDS011;10107;51.198;6.824;2023-05-07T03:09:30;4.22;;;3.45;;
19889;SDS011;10107;51.198;6.824;2023-05-07T03:13:32;3.30;;;3.00;;
19889;SDS011;10107;51.198;6.824;2023-05-07T03:17:35;9.07;;;3.50;;
19889;SDS011;10107;51.198;6.824;2023-05-07T03:21:37;2.57;;;2.37;;
19889;SDS011;10107;51.198;6.824;2023-05-07T03:25:38;3.90;;;3.00;;
19889;SDS011;10107;51.198;6.824;2023-05-07T03:29:40;3.20;;;2.78;;
19889;SDS011;10107;51.198;6.824;2023-05-07T03:33:50;3.20;;;2.70;;
19889;SDS011;10107;51.198;6.824;2023-05-07T03:37:53;3.15;;;2.60;;
19889;SDS011;10107;51.198;6.824;2023-05-07T03:41:56;3.13;;;2.80;;
19889;SDS011;10107;51.198;6.824;2023-05-07T03:45:58;3.28;;;2.60;;
19889;SDS011;10107;51.198;6.824;2023-05-07T03:50:04;3.72;;;2.70;;
19889;SDS011;10107;51.198;6.824;2023-05-07T03:54:06;3.95;;;2.90;;
19889;SDS011;10107;51.198;6.824;2023-05-07T03:58:08;4.18;;;2.80;;
19889;SDS011;10107;51.198;6.824;2023-05-07T04:02:11;3.78;;;2.70;;
19889;SDS011;10107;51.198;6.824;2023-05-07T04:06:16;3.27;;;2.97;;
19889;SDS011;10107;51.198;6.824;2023-05-07T04:10:20;3.45;;;2.88;;
19889;SDS011;10107;51.198;6.824;2023-05-07T04:14:25;4.15;;;2.45;;
19889;SDS011;10107;51.198;6.824;2023-05-07T04:18:28;2.67;;;2.45;;
19889;SDS011;10107;51.198;6.824;2023-05-07T04:22:31;3.53;;;2.70;;
19889;SDS011;10107;51.198;6.824;2023-05-07T04:26:32;4.20;;;2.77;;
19889;SDS011;10107;51.198;6.824;2023-05-07T04:30:34;3.22;;;2.83;;
19889;SDS011;10107;51.198;6.824;2023-05-07T04:34:39;2.63;;;2.30;;
19889;SDS011;10107;51.198;6.824;2023-05-07T04:38:43;2.55;;;2.30;;
19889;SDS011;10107;51.198;6.824;2023-05-07T04:42:45;4.38;;;2.90;;
19889;SDS011;10107;51.198;6.824;2023-05-07T04:46:47;2.60;;;2.30;;
19889;SDS011;10107;51.198;6.824;2023-05-07T04:50:49;3.20;;;2.33;;
19889;SDS011;10107;51.198;6.824;2023-05-07T04:54:54;2.70;;;2.38;;
19889;SDS011;10107;51.198;6.824;2023-05-07T04:58:56;2.97;;;2.25;;
19889;SDS011;10107;51.198;6.824;2023-05-07T05:02:58;2.55;;;2.30;;
19889;SDS011;10107;51.198;6.824;2023-05-07T05:07:00;2.42;;;2.22;;
19889;SDS011;10107;51.198;6.824;2023-05-07T05:11:05;2.45;;;2.25;;
19889;SDS011;10107;51.198;6.824;2023-05-07T05:15:10;2.40;;;2.20;;
19889;SDS011;10107;51.198;6.824;2023-05-07T05:19:13;2.40;;;2.20;;
19889;SDS011;10107;51.198;6.824;2023-05-07T05:23:15;2.30;;;2.10;;
19889;SDS011;10107;51.198;6.824;2023-05-07T05:27:19;2.13;;;1.92;;
19889;SDS011;10107;51.198;6.824;2023-05-07T05:31:21;1.50;;;1.40;;
19889;SDS011;10107;51.198;6.824;2023-05-07T05:35:24;2.33;;;1.90;;
19889;SDS011;10107;51.198;6.824;2023-05-07T05:39:25;2.00;;;1.80;;
19889;SDS011;10107;51.198;6.824;2023-05-07T05:43:29;2.33;;;1.77;;
19889;SDS011;10107;51.198;6.824;2023-05-07T05:47:30;3.53;;;1.97;;
19889;SDS011;10107;51.198;6.824;2023-05-07T05:51:32;2.50;;;2.08;;
19889;SDS011;10107;51.198;6.824;2023-05-07T05:55:34;2.97;;;2.00;;
19889;SDS011;10107;51.198;6.824;2023-05-07T05:59:37;2.33;;;2.10;;
19889;SDS011;10107;51.198;6.824;2023-05-07T06:03:39;2.08;;;1.88;;
19889;SDS011;10107;51.198;6.824;2023-05-07T06:07:46;2.15;;;1.95;;
19889;SDS011;10107;51.198;6.824;2023-05-07T06:11:49;3.03;;;2.40;;
19889;SDS011;10107;51.198;6.824;2023-05-07T06:15:52;2.70;;;2.30;;
19889;SDS011;10107;51.198;6.824;2023-05-07T06:19:54;3.10;;;2.30;;
19889;SDS011;10107;51.198;6.824;2023-05-07T06:23:56;2.30;;;2.08;;
19889;SDS011;10107;51.198;6.824;2023-05-07T06:27:58;2.20;;;2.00;;
19889;SDS011;10107;51.198;6.824;2023-05-07T06:32:08;2.00;;;1.80;;
19889;SDS011;10107;51.198;6.824;2023-05-07T06:36:14;1.92;;;1.60;;
19889;SDS011;10107;51.198;6.824;2023-05-07T06:40:16;2.78;;;2.00;;
19889;SDS011;10107;51.198;6.824;2023-05-07T06:44:19;2.10;;;1.90;;
19889;SDS011;10107;51.198;6.824;2023-05-07T06:48:33;2.20;;;2.00;;
19889;SDS011;10107;51.198;6.824;2023-05-07T06:52:39;2.22;;;2.03;;
19889;SDS011;10107;51.198;6.824;2023-05-07T06:56:40;2.30;;;2.08;;
19889;SDS011;10107;51.198;6.824;2023-05-07T07:00:43;2.35;;;1.70;;
19889;SDS011;10107;51.198;6.824;2023-05-07T07:04:47;2.47;;;1.73;;
19889;SDS011;10107;51.198;6.824;2023-05-07T07:08:49;3.00;;;1.80;;
19889;SDS011;10107;51.198;6.824;2023-05-07T07:12:51;1.45;;;1.27;;
19889;SDS011;10107;51.198;6.824;2023-05-07T07:16:55;2.42;;;1.70;;
19889;SDS011;10107;51.198;6.824;2023-05-07T07:21:00;1.85;;;1.50;;
19889;SDS011;10107;51.198;6.824;2023-05-07T07:25:02;2.25;;;1.73;;
19889;SDS011;10107;51.198;6.824;2023-05-07T07:29:04;2.22;;;1.73;;
19889;SDS011;10107;51.198;6.824;2023-05-07T07:33:07;1.93;;;1.60;;
19889;SDS011;10107;51.198;6.824;2023-05-07T07:37:12;1.40;;;1.30;;
19889;SDS011;10107;51.198;6.824;2023-05-07T07:41:15;2.90;;;1.85;;
19889;SDS011;10107;51.198;6.824;2023-05-07T07:45:18;3.30;;;2.00;;
19889;SDS011;10107;51.198;6.824;2023-05-07T07:49:22;1.90;;;1.70;;
19889;SDS011;10107;51.198;6.824;2023-05-07T07:53:25;2.85;;;1.60;;
19889;SDS011;10107;51.198;6.824;2023-05-07T07:57:27;3.00;;;1.67;;
19889;SDS011;10107;51.198;6.824;2023-05-07T08:01:30;2.42;;;1.75;;
19889;SDS011;10107;51.198;6.824;2023-05-07T08:05:32;1.92;;;1.60;;
19889;SDS011;10107;51.198;6.824;2023-05-07T08:09:36;4.10;;;1.90;;
19889;SDS011;10107;51.198;6.824;2023-05-07T08:13:38;2.22;;;1.73;;
19889;SDS011;10107;51.198;6.824;2023-05-07T08:17:40;2.00;;;1.52;;
19889;SDS011;10107;51.198;6.824;2023-05-07T08:21:43;2.40;;;1.52;;
19889;SDS011;10107;51.198;6.824;2023-05-07T08:25:47;2.38;;;1.83;;
19889;SDS011;10107;51.198;6.824;2023-05-07T08:29:50;2.25;;;1.73;;
19889;SDS011;10107;51.198;6.824;2023-05-07T08:33:54;2.15;;;1.30;;
19889;SDS011;10107;51.198;6.824;2023-05-07T08:37:55;4.13;;;1.88;;
19889;SDS011;10107;51.198;6.824;2023-05-07T08:41:59;3.33;;;1.50;;
19889;SDS011;10107;51.198;6.824;2023-05-07T08:46:06;1.60;;;1.27;;
19889;SDS011;10107;51.198;6.824;2023-05-07T08:50:14;2.55;;;1.83;;
19889;SDS011;10107;51.198;6.824;2023-05-07T08:54:16;1.93;;;1.50;;
19889;SDS011;10107;51.198;6.824;2023-05-07T08:58:21;3.95;;;1.67;;
19889;SDS011;10107;51.198;6.824;2023-05-07T09:02:24;3.67;;;2.03;;
19889;SDS011;10107;51.198;6.824;2023-05-07T09:06:27;2.53;;;1.42;;
19889;SDS011;10107;51.198;6.824;2023-05-07T09:10:30;2.83;;;1.52;;
19889;SDS011;10107;51.198;6.824;2023-05-07T09:14:37;2.00;;;1.60;;
19889;SDS011;10107;51.198;6.824;2023-05-07T09:18:42;3.28;;;1.48;;
19889;SDS011;10107;51.198;6.824;2023-05-07T09:22:47;4.55;;;1.95;;
19889;SDS011;10107;51.198;6.824;2023-05-07T09:26:51;3.47;;;1.90;;
19889;SDS011;10107;51.198;6.824;2023-05-07T09:30:54;1.85;;;1.38;;
19889;SDS011;10107;51.198;6.824;2023-05-07T09:34:57;2.75;;;1.70;;
19889;SDS011;10107;51.198;6.824;2023-05-07T09:39:00;2.22;;;1.60;;
19889;SDS011;10107;51.198;6.824;2023-05-07T09:43:09;2.20;;;1.70;;
19889;SDS011;10107;51.198;6.824;2023-05-07T09:47:18;1.90;;;1.80;;
19889;SDS011;10107;51.198;6.824;2023-05-07T09:51:25;3.63;;;2.10;;
19889;SDS011;10107;51.198;6.824;2023-05-07T09:55:32;1.50;;;1.40;;
19889;SDS011;10107;51.198;6.824;2023-05-07T09:59:34;2.40;;;1.50;;
19889;SDS011;10107;51.198;6.824;2023-05-07T10:03:43;3.40;;;1.50;;
19889;SDS011;10107;51.198;6.824;2023-05-07T10:07:48;2.30;;;1.23;;
19889;SDS011;10107;51.198;6.824;2023-05-07T10:11:51;2.47;;;1.60;;
19889;SDS011;10107;51.198;6.824;2023-05-07T10:15:54;2.53;;;1.48;;
19889;SDS011;10107;51.198;6.824;2023-05-07T10:20:00;1.58;;;1.35;;
19889;SDS011;10107;51.198;6.824;2023-05-07T10:24:03;2.38;;;1.60;;
19889;SDS011;10107;51.198;6.824;2023-05-07T10:28:09;1.40;;;1.23;;
19889;SDS011;10107;51.198;6.824;2023-05-07T10:32:27;1.20;;;1.10;;
19889;SDS011;10107;51.198;6.824;2023-05-07T10:36:39;1.20;;;1.10;;
19889;SDS011;10107;51.198;6.824;2023-05-07T10:40:42;1.55;;;1.13;;
19889;SDS011;10107;51.198;6.824;2023-05-07T10:44:44;2.15;;;1.02;;
19889;SDS011;10107;51.198;6.824;2023-05-07T10:49:06;1.73;;;1.10;;
19889;SDS011;10107;51.198;6.824;2023-05-07T10:53:32;1.80;;;1.20;;
19889;SDS011;10107;51.198;6.824;2023-05-07T10:57:49;3.17;;;1.50;;
19889;SDS011;10107;51.198;6.824;2023-05-07T11:01:57;3.05;;;1.20;;
19889;SDS011;10107;51.198;6.824;2023-05-07T11:06:11;1.58;;;1.30;;
19889;SDS011;10107;51.198;6.824;2023-05-07T11:15:14;1.83;;;1.35;;
19889;SDS011;10107;51.198;6.824;2023-05-07T11:19:16;1.73;;;1.20;;
19889;SDS011;10107;51.198;6.824;2023-05-07T11:32:35;1.30;;;1.08;;
19889;SDS011;10107;51.198;6.824;2023-05-07T11:36:41;2.17;;;1.30;;
19889;SDS011;10107;51.198;6.824;2023-05-07T11:40:48;1.60;;;1.45;;
19889;SDS011;10107;51.198;6.824;2023-05-07T11:48:53;1.27;;;1.05;;
19889;SDS011;10107;51.198;6.824;2023-05-07T11:52:55;1.55;;;1.10;;
19889;SDS011;10107;51.198;6.824;2023-05-07T11:56:57;1.77;;;1.10;;
19889;SDS011;10107;51.198;6.824;2023-05-07T12:01:01;1.58;;;1.10;;
19889;SDS011;10107;51.198;6.824;2023-05-07T12:09:05;1.33;;;1.23;;
19889;SDS011;10107;51.198;6.824;2023-05-07T12:13:14;1.20;;;1.10;;
19889;SDS011;10107;51.198;6.824;2023-05-07T12:17:18;1.80;;;1.40;;
19889;SDS011;10107;51.198;6.824;2023-05-07T12:25:21;3.20;;;1.27;;
19889;SDS011;10107;51.198;6.824;2023-05-07T12:29:23;1.88;;;1.60;;
19889;SDS011;10107;51.198;6.824;2023-05-07T12:33:27;3.60;;;1.70;;
19889;SDS011;10107;51.198;6.824;2023-05-07T12:37:31;2.20;;;1.38;;
19889;SDS011;10107;51.198;6.824;2023-05-07T12:41:35;1.75;;;1.30;;
19889;SDS011;10107;51.198;6.824;2023-05-07T12:45:53;2.13;;;1.90;;
19889;SDS011;10107;51.198;6.824;2023-05-07T12:49:57;1.55;;;1.40;;
19889;SDS011;10107;51.198;6.824;2023-05-07T12:54:00;2.55;;;1.40;;
19889;SDS011;10107;51.198;6.824;2023-05-07T12:58:02;3.95;;;2.50;;
19889;SDS011;10107;51.198;6.824;2023-05-07T13:02:04;6.88;;;4.18;;
19889;SDS011;10107;51.198;6.824;2023-05-07T13:06:08;4.32;;;2.58;;
19889;SDS011;10107;51.198;6.824;2023-05-07T13:10:12;2.17;;;1.50;;
19889;SDS011;10107;51.198;6.824;2023-05-07T13:14:13;2.45;;;1.70;;
19889;SDS011;10107;51.198;6.824;2023-05-07T13:18:16;3.15;;;1.52;;
19889;SDS011;10107;51.198;6.824;2023-05-07T13:22:19;1.77;;;1.67;;
19889;SDS011;10107;51.198;6.824;2023-05-07T13:26:21;2.38;;;1.80;;
19889;SDS011;10107;51.198;6.824;2023-05-07T13:30:22;2.53;;;1.90;;
19889;SDS011;10107;51.198;6.824;2023-05-07T13:34:24;4.00;;;2.10;;
19889;SDS011;10107;51.198;6.824;2023-05-07T13:38:27;3.13;;;2.40;;
19889;SDS011;10107;51.198;6.824;2023-05-07T13:42:29;4.63;;;2.95;;
19889;SDS011;10107;51.198;6.824;2023-05-07T13:46:34;3.30;;;2.28;;
19889;SDS011;10107;51.198;6.824;2023-05-07T13:50:35;6.65;;;3.10;;
19889;SDS011;10107;51.198;6.824;2023-05-07T13:54:38;6.25;;;3.28;;
19889;SDS011;10107;51.198;6.824;2023-05-07T13:58:40;9.48;;;3.88;;
19889;SDS011;10107;51.198;6.824;2023-05-07T14:02:42;7.40;;;4.22;;
19889;SDS011;10107;51.198;6.824;2023-05-07T14:06:44;9.45;;;5.00;;
19889;SDS011;10107;51.198;6.824;2023-05-07T14:10:47;7.50;;;4.55;;
19889;SDS011;10107;51.198;6.824;2023-05-07T14:14:48;8.93;;;6.17;;
19889;SDS011;10107;51.198;6.824;2023-05-07T14:18:50;3.70;;;3.40;;
19889;SDS011;10107;51.198;6.824;2023-05-07T14:22:52;6.05;;;4.20;;
19889;SDS011;10107;51.198;6.824;2023-05-07T14:26:55;8.13;;;6.88;;
19889;SDS011;10107;51.198;6.824;2023-05-07T14:30:57;6.80;;;4.67;;
19889;SDS011;10107;51.198;6.824;2023-05-07T14:34:58;8.48;;;7.05;;
19889;SDS011;10107;51.198;6.824;2023-05-07T14:39:00;10.20;;;7.78;;
19889;SDS011;10107;51.198;6.824;2023-05-07T14:43:04;13.57;;;10.40;;
19889;SDS011;10107;51.198;6.824;2023-05-07T14:47:06;14.57;;;11.00;;
19889;SDS011;10107;51.198;6.824;2023-05-07T14:51:08;15.65;;;11.20;;
19889;SDS011;10107;51.198;6.824;2023-05-07T14:55:09;13.57;;;10.77;;
19889;SDS011;10107;51.198;6.824;2023-05-07T14:59:13;16.10;;;10.52;;
19889;SDS011;10107;51.198;6.824;2023-05-07T15:03:17;11.65;;;8.40;;
19889;SDS011;10107;51.198;6.824;2023-05-07T15:07:19;11.45;;;8.50;;
19889;SDS011;10107;51.198;6.824;2023-05-07T15:11:21;13.55;;;9.13;;
19889;SDS011;10107;51.198;6.824;2023-05-07T15:15:24;10.10;;;7.72;;
19889;SDS011;10107;51.198;6.824;2023-05-07T15:19:28;7.75;;;6.70;;
19889;SDS011;10107;51.198;6.824;2023-05-07T15:23:30;7.00;;;6.25;;
19889;SDS011;10107;51.198;6.824;2023-05-07T15:27:32;7.85;;;5.82;;
19889;SDS011;10107;51.198;6.824;2023-05-07T15:31:35;7.90;;;5.57;;
19889;SDS011;10107;51.198;6.824;2023-05-07T15:35:37;5.65;;;5.00;;
19889;SDS011;10107;51.198;6.824;2023-05-07T15:39:39;5.47;;;4.95;;
19889;SDS011;10107;51.198;6.824;2023-05-07T15:43:43;6.18;;;4.90;;
19889;SDS011;10107;51.198;6.824;2023-05-07T15:47:48;6.35;;;5.18;;
19889;SDS011;10107;51.198;6.824;2023-05-07T15:51:50;4.10;;;3.70;;
19889;SDS011;10107;51.198;6.824;2023-05-07T15:55:52;5.95;;;5.32;;
19889;SDS011;10107;51.198;6.824;2023-05-07T15:59:53;6.72;;;5.78;;
19889;SDS011;10107;51.198;6.824;2023-05-07T16:03:56;6.95;;;5.78;;
19889;SDS011;10107;51.198;6.824;2023-05-07T16:07:58;8.50;;;6.95;;
19889;SDS011;10107;51.198;6.824;2023-05-07T16:12:00;9.13;;;7.75;;
19889;SDS011;10107;51.198;6.824;2023-05-07T16:16:02;8.18;;;7.32;;
19889;SDS011;10107;51.198;6.824;2023-05-07T16:20:06;9.90;;;7.18;;
19889;SDS011;10107;51.198;6.824;2023-05-07T16:24:09;8.02;;;6.78;;
19889;SDS011;10107;51.198;6.824;2023-05-07T16:28:11;7.43;;;6.18;;
19889;SDS011;10107;51.198;6.824;2023-05-07T16:32:12;6.38;;;5.55;;
19889;SDS011;10107;51.198;6.824;2023-05-07T16:36:15;7.38;;;6.45;;
19889;SDS011;10107;51.198;6.824;2023-05-07T16:40:17;7.57;;;6.45;;
19889;SDS011;10107;51.198;6.824;2023-05-07T16:44:19;6.60;;;5.90;;
19889;SDS011;10107;51.198;6.824;2023-05-07T16:48:20;6.47;;;5.78;;
19889;SDS011;10107;51.198;6.824;2023-05-07T16:52:23;6.88;;;5.60;;
19889;SDS011;10107;51.198;6.824;2023-05-07T16:56:25;6.40;;;5.72;;
19889;SDS011;10107;51.198;6.824;2023-05-07T17:00:27;5.90;;;5.18;;
19889;SDS011;10107;51.198;6.824;2023-05-07T17:04:28;7.47;;;5.50;;
19889;SDS011;10107;51.198;6.824;2023-05-07T17:08:32;5.93;;;5.20;;
19889;SDS011;10107;51.198;6.824;2023-05-07T17:12:34;4.47;;;3.60;;
19889;SDS011;10107;51.198;6.824;2023-05-07T17:16:36;6.50;;;5.43;;
19889;SDS011;10107;51.198;6.824;2023-05-07T17:20:38;5.70;;;5.13;;
19889;SDS011;10107;51.198;6.824;2023-05-07T17:24:41;5.65;;;5.07;;
19889;SDS011;10107;51.198;6.824;2023-05-07T17:28:43;6.07;;;5.20;;
19889;SDS011;10107;51.198;6.824;2023-05-07T17:32:44;5.97;;;5.22;;
19889;SDS011;10107;51.198;6.824;2023-05-07T17:36:46;6.78;;;5.65;;
19889;SDS011;10107;51.198;6.824;2023-05-07T17:40:49;5.72;;;5.03;;
19889;SDS011;10107;51.198;6.824;2023-05-07T17:44:51;5.10;;;4.60;;
19889;SDS011;10107;51.198;6.824;2023-05-07T17:48:53;4.95;;;4.45;;
19889;SDS011;10107;51.198;6.824;2023-05-07T17:52:56;4.80;;;4.30;;
19889;SDS011;10107;51.198;6.824;2023-05-07T17:56:59;5.00;;;4.50;;
19889;SDS011;10107;51.198;6.824;2023-05-07T18:01:01;4.40;;;4.00;;
19889;SDS011;10107;51.198;6.824;2023-05-07T18:05:03;4.35;;;3.92;;
19889;SDS011;10107;51.198;6.824;2023-05-07T18:09:05;4.28;;;3.88;;
19889;SDS011;10107;51.198;6.824;2023-05-07T18:13:08;3.92;;;3.58;;
19889;SDS011;10107;51.198;6.824;2023-05-07T18:17:09;4.83;;;4.17;;
19889;SDS011;10107;51.198;6.824;2023-05-07T18:21:11;4.20;;;3.80;;
19889;SDS011;10107;51.198;6.824;2023-05-07T18:25:17;4.82;;;4.32;;
19889;SDS011;10107;51.198;6.824;2023-05-07T18:29:21;4.40;;;4.00;;
19889;SDS011;10107;51.198;6.824;2023-05-07T18:33:23;4.43;;;4.03;;
19889;SDS011;10107;51.198;6.824;2023-05-07T18:37:24;5.72;;;4.28;;
19889;SDS011;10107;51.198;6.824;2023-05-07T18:41:26;4.55;;;4.15;;
19889;SDS011;10107;51.198;6.824;2023-05-07T18:49:33;6.55;;;4.70;;
19889;SDS011;10107;51.198;6.824;2023-05-07T18:53:35;5.88;;;5.20;;
19889;SDS011;10107;51.198;6.824;2023-05-07T18:57:36;5.65;;;5.03;;
19889;SDS011;10107;51.198;6.824;2023-05-07T19:01:39;5.90;;;5.30;;
19889;SDS011;10107;51.198;6.824;2023-05-07T19:05:42;6.20;;;5.55;;
19889;SDS011;10107;51.198;6.824;2023-05-07T19:09:46;5.97;;;5.38;;
19889;SDS011;10107;51.198;6.824;2023-05-07T19:13:48;6.15;;;5.55;;
19889;SDS011;10107;51.198;6.824;2023-05-07T19:17:51;6.57;;;5.75;;
19889;SDS011;10107;51.198;6.824;2023-05-07T19:21:53;7.85;;;6.10;;
19889;SDS011;10107;51.198;6.824;2023-05-07T19:25:55;9.38;;;6.68;;
19889;SDS011;10107;51.198;6.824;2023-05-07T19:29:56;6.40;;;5.80;;
19889;SDS011;10107;51.198;6.824;2023-05-07T19:33:59;7.53;;;5.80;;
19889;SDS011;10107;51.198;6.824;2023-05-07T19:38:01;7.65;;;6.57;;
19889;SDS011;10107;51.198;6.824;2023-05-07T19:42:04;8.15;;;6.50;;
19889;SDS011;10107;51.198;6.824;2023-05-07T19:46:06;7.80;;;6.28;;
19889;SDS011;10107;51.198;6.824;2023-05-07T19:50:10;10.43;;;7.63;;
19889;SDS011;10107;51.198;6.824;2023-05-07T19:54:11;9.15;;;7.93;;
19889;SDS011;10107;51.198;6.824;2023-05-07T19:58:13;8.23;;;6.95;;
19889;SDS011;10107;51.198;6.824;2023-05-07T20:02:15;7.95;;;7.07;;
19889;SDS011;10107;51.198;6.824;2023-05-07T20:06:19;8.60;;;7.05;;
19889;SDS011;10107;51.198;6.824;2023-05-07T20:10:22;8.90;;;6.57;;
19889;SDS011;10107;51.198;6.824;2023-05-07T20:14:24;7.32;;;6.40;;
19889;SDS011;10107;51.198;6.824;2023-05-07T20:18:26;8.32;;;6.90;;
19889;SDS011;10107;51.198;6.824;2023-05-07T20:22:30;8.27;;;6.50;;
19889;SDS011;10107;51.198;6.824;2023-05-07T20:26:32;8.80;;;7.43;;
19889;SDS011;10107;51.198;6.824;2023-05-07T20:30:34;9.15;;;7.45;;
19889;SDS011;10107;51.198;6.824;2023-05-07T20:34:35;8.48;;;6.90;;
19889;SDS011;10107;51.198;6.824;2023-05-07T20:38:38;8.20;;;6.95;;
19889;SDS011;10107;51.198;6.824;2023-05-07T20:42:40;8.23;;;6.87;;
19889;SDS011;10107;51.198;6.824;2023-05-07T20:46:43;8.25;;;6.72;;
19889;SDS011;10107;51.198;6.824;2023-05-07T20:50:44;8.70;;;6.88;;
19889;SDS011;10107;51.198;6.824;2023-05-07T20:54:47;8.85;;;7.97;;
19889;SDS011;10107;51.198;6.824;2023-05-07T20:58:49;8.43;;;7.33;;
19889;SDS011;10107;51.198;6.824;2023-05-07T21:02:50;7.68;;;6.80;;
19889;SDS011;10107;51.198;6.824;2023-05-07T21:06:52;8.27;;;7.35;;
19889;SDS011;10107;51.198;6.824;2023-05-07T21:10:56;7.20;;;6.45;;
19889;SDS011;10107;51.198;6.824;2023-05-07T21:14:58;7.65;;;6.57;;
19889;SDS011;10107;51.198;6.824;2023-05-07T21:18:59;8.30;;;7.32;;
19889;SDS011;10107;51.198;6.824;2023-05-07T21:23:01;8.10;;;7.13;;
19889;SDS011;10107;51.198;6.824;2023-05-07T21:27:04;7.65;;;6.78;;
19889;SDS011;10107;51.198;6.824;2023-05-07T21:31:06;7.37;;;6.40;;
19889;SDS011;10107;51.198;6.824;2023-05-07T21:35:08;8.10;;;6.90;;
19889;SDS011;10107;51.198;6.824;2023-05-07T21:39:09;7.80;;;7.00;;
19889;SDS011;10107;51.198;6.824;2023-05-07T21:43:12;8.15;;;6.82;;
19889;SDS011;10107;51.198;6.824;2023-05-07T21:47:14;8.10;;;6.73;;
19889;SDS011;10107;51.198;6.824;2023-05-07T21:51:16;8.30;;;6.88;;
19889;SDS011;10107;51.198;6.824;2023-05-07T21:55:17;7.25;;;6.40;;
19889;SDS011;10107;51.198;6.824;2023-05-07T21:59:21;8.73;;;7.45;;
19889;SDS011;10107;51.198;6.824;2023-05-07T22:03:23;8.13;;;7.13;;
19889;SDS011;10107;51.198;6.824;2023-05-07T22:07:25;9.35;;;8.15;;
19889;SDS011;10107;51.198;6.824;2023-05-07T22:11:27;9.05;;;8.00;;
19889;SDS011;10107;51.198;6.824;2023-05-07T22:15:30;10.07;;;8.25;;
19889;SDS011;10107;51.198;6.824;2023-05-07T22:19:32;10.48;;;8.35;;
19889;SDS011;10107;51.198;6.824;2023-05-07T22:23:34;10.55;;;8.70;;
19889;SDS011;10107;51.198;6.824;2023-05-07T22:27:36;9.93;;;8.57;;
19889;SDS011;10107;51.198;6.824;2023-05-07T22:31:39;10.32;;;8.43;;
19889;SDS011;10107;51.198;6.824;2023-05-07T22:35:40;10.55;;;8.82;;
19889;SDS011;10107;51.198;6.824;2023-05-07T22:39:42;9.35;;;8.20;;
19889;SDS011;10107;51.198;6.824;2023-05-07T22:43:44;9.30;;;7.82;;
19889;SDS011;10107;51.198;6.824;2023-05-07T22:47:47;9.70;;;8.25;;
19889;SDS011;10107;51.198;6.824;2023-05-07T22:51:48;8.27;;;5.63;;
19889;SDS011;10107;51.198;6.824;2023-05-07T22:55:50;11.50;;;8.32;;
19889;SDS011;10107;51.198;6.824;2023-05-07T22:59:52;8.88;;;7.90;;
19889;SDS011;10107;51.198;6.824;2023-05-07T23:03:55;10.38;;;8.77;;
19889;SDS011;10107;51.198;6.824;2023-05-07T23:07:57;6.90;;;5.77;;
19889;SDS011;10107;51.198;6.824;2023-05-07T23:11:59;10.20;;;8.43;;
19889;SDS011;10107;51.198;6.824;2023-05-07T23:16:00;11.00;;;9.25;;
19889;SDS011;10107;51.198;6.824;2023-05-07T23:20:04;10.82;;;8.73;;
19889;SDS011;10107;51.198;6.824;2023-05-07T23:24:06;9.85;;;8.85;;
19889;SDS011;10107;51.198;6.824;2023-05-07T23:28:08;10.52;;;8.63;;
19889;SDS011;10107;51.198;6.824;2023-05-07T23:32:10;9.82;;;8.32;;
19889;SDS011;10107;51.198;6.824;2023-05-07T23:36:13;9.80;;;8.57;;
19889;SDS011;10107;51.198;6.824;2023-05-07T23:40:15;8.53;;;7.60;;
19889;SDS011;10107;51.198;6.824;2023-05-07T23:44:17;9.00;;;7.80;;
19889;SDS011;10107;51.198;6.824;2023-05-07T23:48:19;8.43;;;7.60;;
19889;SDS011;10107;51.198;6.824;2023-05-07T23:52:22;8.98;;;7.70;;
19889;SDS011;10107;51.198;6.824;2023-05-07T23:56:23;7.27;;;5.53;;
